Time;durP1;ratioP1;P1;durP2;ratioP2;P2;SDS_P1;SDS_P2;PMS_P1;PMS_P2;Temp;Humidity;BMP_temperature;BMP_pressure;BME280_temperature;BME280_humidity;BME280_pressure;Samples;Min_cycle;Max_cycle;Signal;HPM_P1;HPM_P2
2021/10/13 00:01:48;;;;;;;;;;;;;;;9.65;48.59;99830.84;4886745;29;19923;-75
2021/10/13 00:04:13;;;;;;;;;;;;;;;9.66;48.72;99832.59;4895062;29;19927;-77
2021/10/13 00:06:39;;;;;;;;;;;;;;;9.67;48.54;99820.44;4862382;29;20445;-77
2021/10/13 00:09:05;;;;;;;;;;;;;;;9.73;48.84;99829.06;4901355;29;19948;-78
2021/10/13 00:11:31;;;;;;;;;;;;;;;9.79;48.61;99821.25;4886105;29;19939;-77
2021/10/13 00:13:56;;;;;;;;;;;;;;;9.88;48.65;99820.34;4879211;29;19983;-78
2021/10/13 00:16:22;;;;;;;;;;;;;;;10.00;48.23;99819.41;4877091;29;20387;-80
2021/10/13 00:18:47;;;;;;;;;;;;;;;10.07;48.12;99820.22;4899225;29;19943;-78
2021/10/13 00:21:13;;;;;;;;;;;;;;;9.98;47.63;99812.50;4877080;29;19930;-75
2021/10/13 00:23:38;;;;;;;;;;;;;;;9.85;47.96;99815.16;4879286;29;19927;-76
2021/10/13 00:26:04;;;;;;;;;;;;;;;9.74;48.08;99810.00;4889608;29;20271;-77
2021/10/13 00:28:29;;;;;;;;;;;;;;;9.73;48.74;99805.69;4888913;29;19915;-76
2021/10/13 00:30:55;;;;;;;;;;;;;;;9.84;48.74;99808.22;4876196;29;19929;-76
2021/10/13 00:33:21;;;;;;;;;;;;;;;9.94;48.33;99804.72;4855805;29;20752;-76
2021/10/13 00:35:46;;;;;;;;;;;;;;;9.91;47.89;99798.69;4887687;29;19928;-75
2021/10/13 00:38:11;;;;;;;;;;;;;;;9.82;48.37;99802.16;4883052;29;19933;-76
2021/10/13 00:40:37;;;;;;;;;;;;;;;9.80;48.40;99804.78;4869675;29;20392;-76
2021/10/13 00:43:04;;;;;;;;;;;;;;;9.86;48.77;99800.44;4872148;29;19971;-76
2021/10/13 00:45:29;;;;;;;;;;;;;;;9.84;47.68;99805.63;4887019;29;19932;-75
2021/10/13 00:47:55;;;;;;;;;;;;;;;9.80;48.64;99801.34;4888511;29;19923;-76
2021/10/13 00:50:21;;;;;;;;;;;;;;;9.78;48.02;99792.69;4887128;29;20644;-76
2021/10/13 00:52:46;;;;;;;;;;;;;;;9.68;48.00;99789.28;4887730;29;19930;-76
2021/10/13 00:55:20;;;;;;;;;;;;;;;9.66;48.40;99793.63;4869427;29;19927;-77
2021/10/13 00:57:46;;;;;;;;;;;;;;;9.61;48.76;99785.81;4889122;29;19941;-76
2021/10/13 01:00:12;;;;;;;;;;;;;;;9.59;48.89;99781.50;4888463;29;20551;-79
2021/10/13 01:02:42;;;;;;;;;;;;;;;9.56;48.94;99786.72;4876465;29;19955;-78
2021/10/13 01:05:16;;;;;;;;;;;;;;;9.54;49.12;99784.16;4860024;29;19928;-76
2021/10/13 01:07:50;;;;;;;;;;;;;;;9.47;49.21;99778.13;4891327;29;19927;-77
2021/10/13 01:10:35;;;;;;;;;;;;;;;9.46;49.67;99779.00;4888322;29;20958;-78
2021/10/13 01:13:23;;;;;;;;;;;;;;;9.45;49.59;99779.88;4887987;29;19975;-77
2021/10/13 01:15:56;;;;;;;;;;;;;;;9.53;49.57;99787.63;4889829;29;19927;-77
2021/10/13 01:18:24;;;;;;;;;;;;;;;9.58;49.32;99783.25;4887605;29;19959;-78
2021/10/13 01:21:06;;;;;;;;;;;;;;;9.61;49.50;99780.63;4887198;29;20062;-79
2021/10/13 01:23:50;;;;;;;;;;;;;;;9.51;49.16;99778.97;4886363;29;19927;-77
2021/10/13 01:26:21;;;;;;;;;;;;;;;9.48;49.38;99776.38;4868937;29;20038;-80
2021/10/13 01:28:49;;;;;;;;;;;;;;;9.48;49.82;99773.78;4879092;29;20415;-77
2021/10/13 01:31:14;;;;;;;;;;;;;;;9.57;49.50;99783.25;4887496;29;19946;-78
2021/10/13 01:34:00;;;;;;;;;;;;;;;9.58;49.71;99785.88;4873257;29;19923;-75
2021/10/13 01:36:28;;;;;;;;;;;;;;;9.56;49.35;99787.59;4875157;29;19928;-76
2021/10/13 01:38:56;;;;;;;;;;;;;;;9.53;49.83;99790.22;4876166;29;20012;-75
2021/10/13 01:41:22;;;;;;;;;;;;;;;9.59;49.46;99784.13;4870837;29;19951;-78
2021/10/13 01:43:51;;;;;;;;;;;;;;;9.65;49.32;99791.88;4874050;29;19958;-76
2021/10/13 01:46:18;;;;;;;;;;;;;;;9.65;49.21;99790.13;4881261;29;19999;-77
2021/10/13 01:48:44;;;;;;;;;;;;;;;9.63;49.58;99789.28;4905710;29;19927;-77
2021/10/13 01:51:11;;;;;;;;;;;;;;;9.62;49.51;99781.50;4878806;29;19963;-77
2021/10/13 01:53:38;;;;;;;;;;;;;;;9.60;49.56;99785.84;4874578;29;19930;-77
2021/10/13 01:56:05;;;;;;;;;;;;;;;9.72;49.64;99784.91;4869275;29;19924;-77
2021/10/13 01:58:31;;;;;;;;;;;;;;;9.79;49.05;99784.03;4873143;29;19924;-76
2021/10/13 02:00:57;;;;;;;;;;;;;;;9.62;48.78;99782.34;4869183;29;19924;-77
2021/10/13 02:03:25;;;;;;;;;;;;;;;9.59;49.61;99779.81;4873180;29;19930;-77
2021/10/13 02:05:52;;;;;;;;;;;;;;;9.56;49.75;99777.22;4875457;29;19928;-77
2021/10/13 02:08:19;;;;;;;;;;;;;;;9.49;49.85;99772.91;4873329;29;19958;-77
2021/10/13 02:10:46;;;;;;;;;;;;;;;9.46;49.67;99770.31;4874547;29;19978;-80
2021/10/13 02:13:12;;;;;;;;;;;;;;;9.38;49.41;99770.38;4870486;29;19924;-77
2021/10/13 02:15:40;;;;;;;;;;;;;;;9.38;50.65;99766.91;4872156;29;19928;-77
2021/10/13 02:18:06;;;;;;;;;;;;;;;9.39;50.49;99766.00;4872718;29;19966;-77
2021/10/13 02:20:32;;;;;;;;;;;;;;;9.41;50.68;99772.94;4867058;29;21498;-77
2021/10/13 02:22:59;;;;;;;;;;;;;;;9.43;50.48;99775.53;4872006;29;19971;-76
2021/10/13 02:25:31;;;;;;;;;;;;;;;9.41;50.42;99774.66;4870943;29;19923;-76
2021/10/13 02:27:59;;;;;;;;;;;;;;;9.39;50.53;99773.81;4874619;29;19976;-75
2021/10/13 02:30:25;;;;;;;;;;;;;;;9.41;50.88;99774.66;4876117;29;19923;-77
2021/10/13 02:32:50;;;;;;;;;;;;;;;9.48;50.85;99774.66;4872575;29;19973;-77
2021/10/13 02:35:16;;;;;;;;;;;;;;;9.63;50.46;99783.22;4873847;29;19962;-77
2021/10/13 02:37:42;;;;;;;;;;;;;;;9.71;50.42;99790.97;4872403;29;20396;-77
2021/10/13 02:40:08;;;;;;;;;;;;;;;9.70;49.87;99784.94;4870328;29;19952;-79
2021/10/13 02:42:35;;;;;;;;;;;;;;;9.64;49.93;99778.00;4869222;29;19978;-76
2021/10/13 02:45:00;;;;;;;;;;;;;;;9.67;50.09;99779.75;4891769;29;19928;-78
2021/10/13 02:47:30;;;;;;;;;;;;;;;9.67;50.35;99776.28;4879063;29;20408;-76
2021/10/13 02:49:59;;;;;;;;;;;;;;;9.59;50.12;99777.19;4891727;29;19924;-76
2021/10/13 02:52:30;;;;;;;;;;;;;;;9.57;50.07;99776.34;4862391;29;20018;-76
2021/10/13 02:55:05;;;;;;;;;;;;;;;9.49;50.43;99765.13;4889592;29;19935;-77
2021/10/13 02:57:45;;;;;;;;;;;;;;;9.60;50.63;99768.50;4889671;29;19927;-77
2021/10/13 03:00:12;;;;;;;;;;;;;;;9.70;50.68;99769.34;4890352;29;19935;-77
2021/10/13 03:02:49;;;;;;;;;;;;;;;9.64;49.85;99775.41;4884264;29;19927;-77
2021/10/13 03:05:18;;;;;;;;;;;;;;;9.51;50.19;99765.97;4892304;29;19970;-77
2021/10/13 03:07:44;;;;;;;;;;;;;;;9.40;50.40;99765.16;4896665;29;19928;-76
2021/10/13 03:10:09;;;;;;;;;;;;;;;9.31;50.56;99759.16;4892281;29;19928;-78
2021/10/13 03:12:48;;;;;;;;;;;;;;;9.22;50.86;99764.38;4884046;29;19923;-76
2021/10/13 03:15:13;;;;;;;;;;;;;;;9.15;51.55;99763.53;4873049;29;20384;-75
2021/10/13 03:17:40;;;;;;;;;;;;;;;9.14;51.91;99756.59;4888995;29;19923;-77
2021/10/13 03:20:06;;;;;;;;;;;;;;;9.14;51.55;99758.34;4868528;29;19991;-75
2021/10/13 03:22:33;;;;;;;;;;;;;;;9.12;51.85;99763.53;4884313;29;19934;-75
2021/10/13 03:24:58;;;;;;;;;;;;;;;9.09;51.40;99758.34;4872362;29;19924;-76
2021/10/13 03:27:27;;;;;;;;;;;;;;;9.08;52.04;99755.78;4890950;29;19934;-76
2021/10/13 03:29:53;;;;;;;;;;;;;;;8.93;52.33;99731.59;4887586;29;19955;-76
2021/10/13 03:32:19;;;;;;;;;;;;;;;9.10;51.95;99754.03;4875699;29;19928;-78
2021/10/13 03:34:44;;;;;;;;;;;;;;;9.08;52.44;99748.84;4890907;29;19912;-77
2021/10/13 03:37:15;;;;;;;;;;;;;;;9.07;51.88;99749.69;4912762;29;19934;-77
2021/10/13 03:39:40;;;;;;;;;;;;;;;9.00;52.26;99741.06;4890587;29;20407;-77
2021/10/13 03:42:07;;;;;;;;;;;;;;;8.99;52.58;99738.50;4875511;29;19923;-77
2021/10/13 03:44:33;;;;;;;;;;;;;;;8.98;52.45;99732.44;4872873;29;19931;-75
2021/10/13 03:46:58;;;;;;;;;;;;;;;9.04;52.98;99731.56;4852512;29;19952;-76
2021/10/13 03:49:24;;;;;;;;;;;;;;;9.10;52.19;99725.47;4894540;29;19930;-78
2021/10/13 03:51:50;;;;;;;;;;;;;;;9.02;52.32;99721.16;4860354;29;19963;-77
2021/10/13 03:54:20;;;;;;;;;;;;;;;8.99;52.59;99723.78;4858099;29;19923;-77
2021/10/13 03:56:48;;;;;;;;;;;;;;;8.95;52.50;99722.06;4893067;29;19931;-77
2021/10/13 03:59:14;;;;;;;;;;;;;;;8.99;52.94;99730.72;4880197;29;19934;-78
2021/10/13 04:01:39;;;;;;;;;;;;;;;9.04;52.55;99735.00;4875355;29;19923;-77
2021/10/13 04:04:10;;;;;;;;;;;;;;;9.06;52.54;99740.19;4879012;29;20384;-78
2021/10/13 04:06:37;;;;;;;;;;;;;;;8.95;52.40;99742.81;4878158;29;19987;-78
2021/10/13 04:09:07;;;;;;;;;;;;;;;9.04;52.93;99741.94;4870360;29;19967;-78
2021/10/13 04:11:32;;;;;;;;;;;;;;;8.97;52.41;99742.84;4875997;29;19957;-77
2021/10/13 04:13:58;;;;;;;;;;;;;;;8.98;52.20;99750.59;4871659;29;19929;-77
2021/10/13 04:16:24;;;;;;;;;;;;;;;8.88;52.91;99756.69;4890564;29;19979;-75
2021/10/13 04:18:53;;;;;;;;;;;;;;;8.83;52.90;99758.44;4891433;29;19932;-77
2021/10/13 04:21:27;;;;;;;;;;;;;;;8.85;53.32;99757.56;4876682;29;19923;-78
2021/10/13 04:23:52;;;;;;;;;;;;;;;8.93;53.25;99760.16;4883788;29;19984;-78
2021/10/13 04:26:20;;;;;;;;;;;;;;;8.91;52.91;99756.69;4861470;29;20344;-77
2021/10/13 04:28:46;;;;;;;;;;;;;;;8.81;52.85;99760.16;4870682;29;19923;-78
2021/10/13 04:31:12;;;;;;;;;;;;;;;8.80;53.72;99759.31;4863123;29;19923;-76
2021/10/13 04:33:37;;;;;;;;;;;;;;;8.81;53.43;99754.97;4888831;29;20411;-77
2021/10/13 04:36:05;;;;;;;;;;;;;;;8.82;53.85;99748.91;4875032;29;19927;-77
2021/10/13 04:38:35;;;;;;;;;;;;;;;8.79;53.86;99752.41;4871983;29;19927;-76
2021/10/13 04:41:01;;;;;;;;;;;;;;;8.85;54.20;99751.50;4860891;29;19987;-77
2021/10/13 04:43:27;;;;;;;;;;;;;;;8.85;53.66;99756.69;4888731;29;20380;-76
2021/10/13 04:45:52;;;;;;;;;;;;;;;8.79;54.04;99759.31;4888523;29;20261;-76
2021/10/13 04:48:18;;;;;;;;;;;;;;;8.78;54.18;99762.75;4884132;29;19931;-76
2021/10/13 04:50:43;;;;;;;;;;;;;;;8.79;54.71;99755.00;4860266;29;19950;-77
2021/10/13 04:53:09;;;;;;;;;;;;;;;8.86;53.95;99764.47;4872703;29;20379;-76
2021/10/13 04:55:34;;;;;;;;;;;;;;;8.79;54.37;99760.19;4888597;29;19934;-78
2021/10/13 04:58:00;;;;;;;;;;;;;;;8.81;54.54;99755.84;4873455;29;20376;-77
2021/10/13 05:00:26;;;;;;;;;;;;;;;8.89;54.69;99763.63;4888243;29;19934;-76
2021/10/13 05:03:01;;;;;;;;;;;;;;;8.97;54.46;99769.63;4882006;29;19962;-79
2021/10/13 05:05:27;;;;;;;;;;;;;;;8.97;54.61;99763.59;4858685;29;19928;-77
2021/10/13 05:08:03;;;;;;;;;;;;;;;9.09;54.60;99760.94;4868000;29;20296;-78
2021/10/13 05:10:37;;;;;;;;;;;;;;;9.04;54.47;99755.78;4860614;29;19924;-78
2021/10/13 05:13:03;;;;;;;;;;;;;;;9.02;55.28;99761.84;4874720;29;19934;-76
2021/10/13 05:15:28;;;;;;;;;;;;;;;9.13;55.03;99762.66;4875598;29;19943;-78
2021/10/13 05:17:54;;;;;;;;;;;;;;;9.21;55.04;99748.81;4882625;29;20041;-77
2021/10/13 05:20:19;;;;;;;;;;;;;;;9.27;54.69;99753.97;4889080;29;19931;-79
2021/10/13 05:22:45;;;;;;;;;;;;;;;9.31;54.86;99756.53;4885558;29;19929;-77
2021/10/13 05:25:11;;;;;;;;;;;;;;;9.40;54.94;99757.34;4904912;29;19930;-78
2021/10/13 05:27:36;;;;;;;;;;;;;;;9.53;54.83;99760.75;4906242;29;19915;-78
2021/10/13 05:30:03;;;;;;;;;;;;;;;9.66;54.53;99757.25;4879544;29;19927;-78
2021/10/13 05:32:29;;;;;;;;;;;;;;;9.73;54.09;99753.72;4876086;29;20361;-77
2021/10/13 05:34:54;;;;;;;;;;;;;;;9.60;53.77;99762.47;4871207;29;19929;-77
2021/10/13 05:37:20;;;;;;;;;;;;;;;9.67;54.26;99758.09;4887507;29;20040;-78
2021/10/13 05:39:46;;;;;;;;;;;;;;;9.61;53.82;99759.84;4889074;29;19927;-78
2021/10/13 05:42:11;;;;;;;;;;;;;;;9.65;53.86;99755.50;4872816;29;19983;-78
2021/10/13 05:44:37;;;;;;;;;;;;;;;9.75;54.29;99748.53;4887901;29;20411;-80
2021/10/13 05:47:02;;;;;;;;;;;;;;;9.82;54.37;99746.75;4857835;29;20266;-79
2021/10/13 05:49:28;;;;;;;;;;;;;;;9.84;54.04;99751.03;4861565;29;20367;-78
2021/10/13 05:51:54;;;;;;;;;;;;;;;9.79;53.73;99745.88;4883781;29;19928;-77
2021/10/13 05:54:19;;;;;;;;;;;;;;;9.78;54.10;99745.91;4871783;29;19924;-79
2021/10/13 05:56:49;;;;;;;;;;;;;;;9.88;54.35;99747.56;4888237;29;19924;-79
2021/10/13 05:59:14;;;;;;;;;;;;;;;9.92;53.95;99751.03;4860319;29;19930;-80
2021/10/13 06:01:40;;;;;;;;;;;;;;;9.95;53.51;99754.44;4873811;29;20334;-78
2021/10/13 06:04:06;;;;;;;;;;;;;;;9.88;53.87;99764.91;4893947;29;20403;-77
2021/10/13 06:06:31;;;;;;;;;;;;;;;9.85;53.54;99759.72;4888241;29;19995;-76
2021/10/13 06:08:57;;;;;;;;;;;;;;;9.80;53.57;99764.97;4866656;29;19964;-78
2021/10/13 06:11:22;;;;;;;;;;;;;;;9.89;54.39;99758.84;4889102;29;19927;-78
2021/10/13 06:13:49;;;;;;;;;;;;;;;9.84;54.26;99725.06;4874201;29;19923;-77
2021/10/13 06:16:14;;;;;;;;;;;;;;;10.19;53.35;99768.13;4886877;29;19923;-78
2021/10/13 06:18:40;;;;;;;;;;;;;;;10.22;53.49;99757.72;4887346;29;19923;-77
2021/10/13 06:21:06;;;;;;;;;;;;;;;10.33;53.24;99751.56;4887130;29;20303;-78
2021/10/13 06:23:32;;;;;;;;;;;;;;;10.43;52.74;99754.97;4888055;29;19932;-77
2021/10/13 06:25:57;;;;;;;;;;;;;;;10.37;52.71;99753.25;4856519;29;19927;-77
2021/10/13 06:28:23;;;;;;;;;;;;;;;10.46;53.16;99740.22;4877919;29;19923;-76
2021/10/13 06:30:48;;;;;;;;;;;;;;;10.46;52.48;99750.63;4871673;29;19923;-77
2021/10/13 06:33:14;;;;;;;;;;;;;;;10.47;53.40;99746.25;4842927;29;19923;-76
2021/10/13 06:35:40;;;;;;;;;;;;;;;10.60;53.16;99749.63;4870350;29;20369;-79
2021/10/13 06:38:05;;;;;;;;;;;;;;;10.74;52.71;99750.31;4885069;29;19924;-77
2021/10/13 06:40:31;;;;;;;;;;;;;;;10.65;52.13;99742.63;4872804;29;20424;-77
2021/10/13 06:42:58;;;;;;;;;;;;;;;10.54;52.54;99733.19;4868722;29;19923;-77
2021/10/13 06:45:23;;;;;;;;;;;;;;;10.54;52.50;99733.19;4886883;29;19937;-77
2021/10/13 06:47:49;;;;;;;;;;;;;;;10.64;52.92;99733.94;4873401;29;19933;-75
2021/10/13 06:50:15;;;;;;;;;;;;;;;10.62;51.91;99724.44;4883179;29;19923;-77
2021/10/13 06:52:41;;;;;;;;;;;;;;;10.54;52.27;99716.72;4866812;29;19923;-77
2021/10/13 06:55:07;;;;;;;;;;;;;;;10.55;52.91;99708.88;4862346;29;19923;-78
2021/10/13 06:57:32;;;;;;;;;;;;;;;10.74;52.63;99713.03;4884456;29;19923;-77
2021/10/13 06:59:58;;;;;;;;;;;;;;;11.01;52.38;99717.06;4870689;29;19991;-77
2021/10/13 07:02:23;;;;;;;;;;;;;;;11.21;52.09;99713.34;4889223;29;19970;-78
2021/10/13 07:04:49;;;;;;;;;;;;;;;11.39;51.70;99728.72;4890180;29;19931;-77
2021/10/13 07:07:15;;;;;;;;;;;;;;;11.72;51.67;99725.66;4872605;29;19923;-78
2021/10/13 07:09:40;;;;;;;;;;;;;;;12.07;51.47;99726.03;4876791;29;19966;-79
2021/10/13 07:12:06;;;;;;;;;;;;;;;12.21;50.38;99731.91;4891922;29;20021;-77
2021/10/13 07:14:31;;;;;;;;;;;;;;;12.26;50.06;99732.66;4897732;29;19934;-76
2021/10/13 07:16:57;;;;;;;;;;;;;;;12.33;49.90;99729.09;4896957;29;19915;-79
2021/10/13 07:19:22;;;;;;;;;;;;;;;12.31;49.67;99737.84;4912923;29;19927;-77
2021/10/13 07:21:48;;;;;;;;;;;;;;;12.31;50.47;99745.66;4879030;29;19923;-77
2021/10/13 07:24:13;;;;;;;;;;;;;;;12.42;50.20;99743.72;4885657;29;19967;-77
2021/10/13 07:26:43;;;;;;;;;;;;;;;12.62;49.65;99740.75;4873217;29;20014;-77
2021/10/13 07:29:09;;;;;;;;;;;;;;;12.55;49.48;99738.28;4876817;29;20299;-77
2021/10/13 07:31:35;;;;;;;;;;;;;;;12.42;49.71;99740.25;4873385;29;19934;-77
2021/10/13 07:34:00;;;;;;;;;;;;;;;12.47;49.89;99735.78;4889762;29;19924;-78
2021/10/13 07:36:26;;;;;;;;;;;;;;;12.58;49.39;99736.47;4888797;29;20226;-77
2021/10/13 07:38:52;;;;;;;;;;;;;;;12.95;49.02;99741.00;4888485;29;19973;-76
2021/10/13 07:41:18;;;;;;;;;;;;;;;13.16;48.54;99738.84;4860538;29;19923;-77
2021/10/13 07:43:45;;;;;;;;;;;;;;;13.30;48.68;99743.78;4891086;29;19935;-77
2021/10/13 07:46:12;;;;;;;;;;;;;;;13.44;48.57;99753.13;4869101;29;19935;-77
2021/10/13 07:48:38;;;;;;;;;;;;;;;13.36;47.52;99748.00;4888671;29;20077;-76
2021/10/13 07:51:03;;;;;;;;;;;;;;;13.45;48.04;99737.41;4888301;29;20417;-76
2021/10/13 07:53:29;;;;;;;;;;;;;;;13.73;48.14;99739.41;4861481;29;19929;-77
2021/10/13 07:55:55;;;;;;;;;;;;;;;13.86;47.16;99722.53;4872511;29;20391;-76
2021/10/13 07:58:20;;;;;;;;;;;;;;;14.93;47.77;99724.19;4887756;29;19923;-78
2021/10/13 08:00:46;;;;;;;;;;;;;;;16.85;45.03;99715.50;4872796;29;19930;-79
2021/10/13 08:03:12;;;;;;;;;;;;;;;17.80;43.22;99713.72;4861683;29;19923;-78
2021/10/13 08:05:38;;;;;;;;;;;;;;;18.25;39.86;99718.03;4899197;29;19916;-78
2021/10/13 08:08:04;;;;;;;;;;;;;;;17.99;40.25;99712.09;4869848;29;19931;-79
2021/10/13 08:10:29;;;;;;;;;;;;;;;17.32;40.96;99719.09;4874972;29;19995;-77
2021/10/13 08:12:55;;;;;;;;;;;;;;;16.71;41.62;99716.00;4894804;29;19923;-77
2021/10/13 08:15:21;;;;;;;;;;;;;;;16.15;41.79;99713.56;4866507;29;19963;-77
2021/10/13 08:17:46;;;;;;;;;;;;;;;16.11;42.70;99708.41;4888141;29;19923;-76
2021/10/13 08:20:13;;;;;;;;;;;;;;;15.94;42.22;99726.47;4883938;29;19979;-78
2021/10/13 08:22:39;;;;;;;;;;;;;;;15.68;41.90;99711.53;4888568;29;19978;-78
2021/10/13 08:25:05;;;;;;;;;;;;;;;15.66;42.71;99703.72;4887057;29;19927;-76
2021/10/13 08:27:31;;;;;;;;;;;;;;;15.58;42.42;99703.09;4860857;29;19931;-78
2021/10/13 08:29:56;;;;;;;;;;;;;;;15.46;42.62;99696.47;4867781;29;19930;-79
2021/10/13 08:32:22;;;;;;;;;;;;;;;15.44;42.59;99685.16;4884020;29;19923;-78
2021/10/13 08:34:48;;;;;;;;;;;;;;;15.48;42.03;99677.16;4888925;29;19924;-78
2021/10/13 08:37:13;;;;;;;;;;;;;;;15.69;42.56;99681.78;4887861;29;19928;-78
2021/10/13 08:39:39;;;;;;;;;;;;;;;15.72;41.98;99684.31;4888985;29;19927;-77
2021/10/13 08:42:04;;;;;;;;;;;;;;;15.98;42.10;99674.78;4869759;29;19924;-76
2021/10/13 08:44:30;;;;;;;;;;;;;;;16.65;41.78;99676.81;4858326;29;19931;-78
2021/10/13 08:46:56;;;;;;;;;;;;;;;17.28;40.22;99680.69;4888779;29;19923;-76
2021/10/13 08:49:22;;;;;;;;;;;;;;;17.33;40.30;99680.50;4887688;29;19935;-78
2021/10/13 08:51:47;;;;;;;;;;;;;;;17.59;40.26;99682.09;4887135;29;20308;-77
2021/10/13 08:54:17;;;;;;;;;;;;;;;17.65;39.46;99679.22;4891126;29;19928;-79
2021/10/13 08:56:44;;;;;;;;;;;;;;;18.48;39.33;99682.84;4873752;29;19924;-79
2021/10/13 08:59:11;;;;;;;;;;;;;;;18.44;37.66;99683.03;4887251;29;19946;-78
2021/10/13 09:01:47;;;;;;;;;;;;;;;19.39;38.29;99679.66;4888523;29;19935;-78
2021/10/13 09:04:13;;;;;;;;;;;;;;;20.36;37.44;99667.91;4875724;29;20395;-79
2021/10/13 09:06:39;;;;;;;;;;;;;;;20.49;35.90;99670.78;4910151;29;19932;-78
2021/10/13 09:09:07;;;;;;;;;;;;;;;20.25;36.61;99655.25;4911454;29;19938;-77
2021/10/13 09:11:47;;;;;;;;;;;;;;;20.51;35.56;99655.69;4894650;29;19924;-78
2021/10/13 09:14:13;;;;;;;;;;;;;;;21.43;35.71;99639.25;4881515;29;19924;-78
2021/10/13 09:16:59;;;;;;;;;;;;;;;22.52;34.66;99644.47;4851512;29;19945;-77
2021/10/13 09:19:38;;;;;;;;;;;;;;;22.93;34.10;99639.31;4892286;29;20663;-77
2021/10/13 09:22:08;;;;;;;;;;;;;;;23.53;33.12;99639.94;4855270;29;19954;-78
2021/10/13 09:24:48;;;;;;;;;;;;;;;23.76;32.92;99631.31;4874147;29;19973;-79
2021/10/13 09:27:20;;;;;;;;;;;;;;;24.88;32.32;99642.38;4889430;29;20444;-79
2021/10/13 09:29:57;;;;;;;;;;;;;;;25.30;30.53;99649.16;4891049;29;19948;-78
2021/10/13 09:32:26;;;;;;;;;;;;;;;25.71;29.37;99642.63;4886191;29;19927;-78
2021/10/13 09:35:00;;;;;;;;;;;;;;;25.62;29.41;99641.50;4887251;29;19927;-77
2021/10/13 09:37:52;;;;;;;;;;;;;;;24.63;29.44;99630.75;4871970;29;19934;-79
2021/10/13 09:40:28;;;;;;;;;;;;;;;23.82;31.35;99646.00;4862087;29;19923;-79
2021/10/13 09:43:00;;;;;;;;;;;;;;;23.40;31.71;99650.50;4886957;29;19975;-78
2021/10/13 09:45:38;;;;;;;;;;;;;;;23.41;31.97;99650.44;4886569;29;19935;-79
2021/10/13 09:48:06;;;;;;;;;;;;;;;24.87;31.75;99637.16;4880872;29;19927;-77
2021/10/13 09:50:47;;;;;;;;;;;;;;;25.61;29.50;99642.47;4895001;29;20235;-79
2021/10/13 09:53:18;;;;;;;;;;;;;;;26.18;28.81;99632.03;4870927;29;19931;-77
2021/10/13 09:55:47;;;;;;;;;;;;;;;26.10;27.63;99627.25;4871579;29;20486;-78
2021/10/13 09:58:35;;;;;;;;;;;;;;;25.07;28.68;99646.34;4888528;29;20444;-79
2021/10/13 10:01:28;;;;;;;;;;;;;;;23.76;28.87;99641.94;4861730;29;19982;-78
2021/10/13 10:03:53;;;;;;;;;;;;;;;23.02;30.58;99660.81;4857726;29;20277;-79
2021/10/13 10:06:27;;;;;;;;;;;;;;;22.45;30.60;99658.19;4871929;29;19923;-77
2021/10/13 10:08:56;;;;;;;;;;;;;;;22.08;31.47;99661.19;4878551;29;20042;-80
2021/10/13 10:11:33;;;;;;;;;;;;;;;21.97;31.61;99667.97;4881834;29;19956;-79
2021/10/13 10:14:19;;;;;;;;;;;;;;;21.17;31.81;99680.41;4884864;29;19924;-79
2021/10/13 10:16:45;;;;;;;;;;;;;;;20.67;32.43;99680.38;4889676;29;20387;-78
2021/10/13 10:19:23;;;;;;;;;;;;;;;20.84;33.03;99683.97;4904298;29;19954;-78
2021/10/13 10:22:06;;;;;;;;;;;;;;;20.97;32.21;99674.44;4877089;29;19948;-78
2021/10/13 10:24:40;;;;;;;;;;;;;;;20.80;31.29;99683.25;4885349;29;19938;-77
2021/10/13 10:27:22;;;;;;;;;;;;;;;20.04;33.04;99686.28;4867091;29;19973;-77
2021/10/13 10:29:49;;;;;;;;;;;;;;;19.31;33.61;99682.66;4881280;29;19924;-78
2021/10/13 10:32:18;;;;;;;;;;;;;;;18.73;34.51;99689.66;4866711;29;19923;-79
2021/10/13 10:35:06;;;;;;;;;;;;;;;18.38;34.68;99693.84;4866578;29;19923;-78
2021/10/13 10:37:48;;;;;;;;;;;;;;;18.15;35.68;99687.78;4856311;29;19932;-78
2021/10/13 10:40:16;;;;;;;;;;;;;;;18.14;35.44;99691.31;4872494;29;19924;-78
2021/10/13 10:42:48;;;;;;;;;;;;;;;17.99;35.67;99683.13;4840273;29;20022;-80
2021/10/13 10:45:16;;;;;;;;;;;;;;;17.79;36.22;99699.72;4858474;29;19939;-77
2021/10/13 10:47:49;;;;;;;;;;;;;;;17.48;36.48;99692.19;4867798;29;19924;-77
2021/10/13 10:50:49;;;;;;;;;;;;;;;17.44;37.09;99692.31;4852586;29;19924;-79
2021/10/13 10:53:29;;;;;;;;;;;;;;;17.61;36.72;99703.94;4839034;29;19928;-78
2021/10/13 10:55:59;;;;;;;;;;;;;;;17.56;36.80;99706.75;4868812;29;19924;-78
2021/10/13 10:58:31;;;;;;;;;;;;;;;17.64;36.78;99708.25;4879348;29;19943;-79
2021/10/13 11:01:21;;;;;;;;;;;;;;;17.63;36.64;99707.38;4856702;29;20010;-80
2021/10/13 11:04:18;;;;;;;;;;;;;;;17.48;36.95;99707.97;4858118;29;19924;-78
2021/10/13 11:06:44;;;;;;;;;;;;;;;17.57;37.21;99704.97;4855503;29;19928;-79
2021/10/13 11:09:38;;;;;;;;;;;;;;;17.65;37.28;99697.63;4855858;29;19928;-78
2021/10/13 11:12:18;;;;;;;;;;;;;;;17.47;36.73;99688.69;4856215;29;19954;-78
2021/10/13 11:14:49;;;;;;;;;;;;;;;17.34;37.15;99696.19;4856909;29;19924;-78
2021/10/13 11:17:27;;;;;;;;;;;;;;;17.38;37.77;99704.84;4844857;29;19982;-79
2021/10/13 11:20:20;;;;;;;;;;;;;;;17.53;37.71;99695.50;4860372;29;19931;-78
2021/10/13 11:22:59;;;;;;;;;;;;;;;17.55;37.42;99691.00;4828901;29;19928;-80
2021/10/13 11:25:48;;;;;;;;;;;;;;;17.23;37.73;99688.72;4857398;29;19928;-78
2021/10/13 11:28:32;;;;;;;;;;;;;;;17.14;37.55;99684.69;4853852;29;19986;-77
2021/10/13 11:31:05;;;;;;;;;;;;;;;17.21;37.66;99694.97;4857733;29;19924;-78
2021/10/13 11:33:43;;;;;;;;;;;;;;;;;;;;;
2021/10/13 11:36:33;;;;;;;;;;;;;;;16.71;38.15;99683.59;4856706;29;19935;-78
2021/10/13 11:39:40;;;;;;;;;;;;;;;;;;;;;
2021/10/13 11:42:49;;;;;;;;;;;;;;;;;;;;;
2021/10/13 11:45:54;;;;;;;;;;;;;;;16.48;38.87;99685.28;4879469;29;20030;-78
2021/10/13 11:48:23;;;;;;;;;;;;;;;16.32;38.91;99697.25;4885384;29;19924;-79
2021/10/13 11:50:55;;;;;;;;;;;;;;;16.10;39.86;99690.09;4886252;29;19967;-78
2021/10/13 11:53:25;;;;;;;;;;;;;;;16.05;39.67;99695.50;4880846;29;20019;-78
2021/10/13 11:55:56;;;;;;;;;;;;;;;15.88;40.20;99690.81;4842151;29;19924;-78
2021/10/13 11:58:29;;;;;;;;;;;;;;;15.80;40.17;99704.13;4858964;29;19977;-79
2021/10/13 12:01:17;;;;;;;;;;;;;;;15.69;40.49;99698.34;4871485;29;20459;-78
2021/10/13 12:03:52;;;;;;;;;;;;;;;15.74;40.39;99706.09;4845666;29;19970;-77
2021/10/13 12:06:18;;;;;;;;;;;;;;;15.72;40.05;99707.91;4881635;29;20420;-78
2021/10/13 12:08:43;;;;;;;;;;;;;;;15.74;40.08;99708.72;4866704;29;19959;-78
2021/10/13 12:11:13;;;;;;;;;;;;;;;15.52;40.46;99710.25;4875440;29;19930;-78
2021/10/13 12:13:46;;;;;;;;;;;;;;;15.44;40.49;99712.25;4874616;29;20468;-77
2021/10/13 12:16:13;;;;;;;;;;;;;;;15.20;40.28;99708.59;4892985;29;19992;-79
2021/10/13 12:18:52;;;;;;;;;;;;;;;15.04;40.78;99711.66;4905886;29;19931;-77
2021/10/13 12:21:19;;;;;;;;;;;;;;;14.95;41.53;99711.06;4890188;29;19931;-78
2021/10/13 12:23:47;;;;;;;;;;;;;;;14.86;41.33;99706.97;4860562;29;20021;-77
2021/10/13 12:26:19;;;;;;;;;;;;;;;14.86;41.50;99720.91;4886448;29;20061;-77
2021/10/13 12:28:50;;;;;;;;;;;;;;;14.79;41.49;99718.50;4854036;29;19931;-77
2021/10/13 12:31:21;;;;;;;;;;;;;;;14.74;41.58;99721.25;4864466;29;20416;-78
2021/10/13 12:33:49;;;;;;;;;;;;;;;14.67;41.83;99725.78;4869996;29;19931;-78
2021/10/13 12:36:18;;;;;;;;;;;;;;;14.55;41.84;99737.44;4868952;29;20300;-79
2021/10/13 12:38:45;;;;;;;;;;;;;;;14.54;42.12;99737.44;4882082;29;19923;-78
2021/10/13 12:41:11;;;;;;;;;;;;;;;14.55;42.00;99731.31;4877627;29;19920;-78
2021/10/13 12:43:45;;;;;;;;;;;;;;;14.52;42.15;99731.38;4872041;29;20303;-79
2021/10/13 12:46:21;;;;;;;;;;;;;;;14.49;41.90;99731.47;4884310;29;20003;-79
2021/10/13 12:48:49;;;;;;;;;;;;;;;14.44;42.55;99732.47;4890778;29;19904;-79
2021/10/13 12:51:17;;;;;;;;;;;;;;;14.58;42.60;99741.72;4892863;29;19945;-79
2021/10/13 12:53:54;;;;;;;;;;;;;;;14.53;42.15;99728.75;4880210;29;19924;-78
2021/10/13 12:56:20;;;;;;;;;;;;;;;14.47;42.57;99744.59;4860516;29;19946;-77
2021/10/13 12:58:54;;;;;;;;;;;;;;;14.45;42.33;99734.16;4841906;29;19928;-78
2021/10/13 13:01:52;;;;;;;;;;;;;;;14.34;42.99;99730.13;4858143;29;19927;-80
2021/10/13 13:04:18;;;;;;;;;;;;;;;14.34;42.68;99733.59;4858353;29;19954;-79
2021/10/13 13:07:17;;;;;;;;;;;;;;;14.38;43.26;99723.88;4869507;29;19999;-79
2021/10/13 13:09:45;;;;;;;;;;;;;;;14.37;42.59;99735.25;4872176;29;19976;-78